Data for 05/25/2006

Time Sea-Level Adjusted Pressure Absolute Pressure Temperature Relative Humidity Dew Point   
(mb) (inHg) (mb) (inHg) (C) (F) (%) (C) (F)
00:05 1016 30 846 24.98 16.6 61.8 40 3.1 37.6
00:10 1016 30 846 24.98 16.3 61.4 42 3.5 38.2
00:15 1016 30 846 24.98 16 60.7 42 3.3 38
00:20 1016 30 845 24.95 16.1 61 41 2.9 37.3
00:25 1016 30 845 24.95 16.5 61.8 39 2.6 36.6
00:30 1016 30 845 24.95 16.8 62.2 38 2.5 36.5
00:35 1016 30 845 24.95 17 62.7 37 2.5 36.5
00:40 1016 30 845 24.95 17.2 62.9 39 3.2 37.7
00:45 1016 30 845 24.95 17 62.6 37 2.4 36.4
00:50 1016 30 845 24.95 17.1 62.8 37 2.6 36.7
00:55 1016 30 845 24.95 17.4 63.3 39 3.4 38.2
01:00 1016 30 845 24.95 18.6 65.5 32 1.7 35
01:05 1016 30 845 24.95 19.6 67.3 30 1.7 35.1
01:10 1016 30 845 24.95 19.8 67.7 30 1.9 35.4
01:15 1016 30 845 24.95 19.6 67.3 31 2.1 35.8
01:20 1016 30 845 24.95 19.5 67.2 31 2.2 35.9
01:25 1016 30 845 24.95 19.3 66.8 32 2.3 36.1
01:30 1016 30 845 24.95 19.2 66.5 31 1.9 35.4
01:35 1016 30 845 24.95 19.4 66.9 32 2.3 36.1
01:40 1016 30 845 24.95 19.2 66.5 32 2.5 36.4
01:45 1016 30 845 24.95 18.7 65.7 34 2.6 36.6
01:50 1016 30 845 24.95 17.8 64 40 4.3 39.7
01:55 1016 30 845 24.95 16.3 61.4 44 4.1 39.4
02:00 1016 30 845 24.95 16 60.8 43 3.6 38.5
02:05 1016 30 845 24.95 15.8 60.5 45 4 39.2
02:10 1016 30 845 24.95 15.6 60.1 44 3.4 38.1
02:15 1016 30 845 24.95 15.9 60.6 41 2.8 37
02:20 1016 30 845 24.95 16.2 61.1 42 3.2 37.8
02:25 1016 30 845 24.95 15.9 60.7 42 3.1 37.6
02:30 1016 30 845 24.95 15.8 60.5 43 3.3 37.9
02:35 1016 30 846 24.98 15.8 60.4 43 3.4 38.1
02:40 1016 30 846 24.98 15.8 60.5 44 3.5 38.4
02:45 1016 30 846 24.98 15.5 59.9 46 3.9 39
02:50 1017 30.03 846 24.98 15.4 59.7 46 4 39.2
02:55 1017 30.03 846 24.98 15.5 59.8 47 4.2 39.5
03:00 1017 30.03 846 24.98 15.6 60 46 4.1 39.5
03:05 1017 30.03 846 24.98 15.3 59.6 48 4.4 39.9
03:10 1017 30.03 846 24.98 15.1 59.3 48 4.4 39.9
03:15 1017 30.03 846 24.98 15.1 59.1 49 4.5 40.1
03:20 1017 30.03 846 24.98 14.9 58.7 48 4.2 39.5
03:25 1017 30.03 846 24.98 14.9 58.7 48 4.1 39.4
03:30 1017 30.03 846 24.98 14.8 58.6 49 4.1 39.4
03:35 1017 30.03 846 24.98 14.6 58.3 49 4 39.2
03:40 1017 30.03 846 24.98 14.5 58.1 51 4.4 40
03:45 1017 30.03 846 24.98 13.9 57 54 4.7 40.5
03:50 1017 30.03 846 24.98 13.8 56.8 53 4.4 39.9
03:55 1017 30.03 846 24.98 14.1 57.3 52 4.3 39.8
04:00 1017 30.03 846 24.98 14.2 57.5 52 4.4 40
04:05 1017 30.03 846 24.98 14.3 57.8 51 4.5 40.1
04:10 1017 30.03 846 24.98 14 57.1 53 4.6 40.3
04:15 1017 30.03 846 24.98 13.8 56.8 52 4.1 39.4
04:20 1017 30.03 846 24.98 13.7 56.6 54 4.6 40.3
04:25 1017 30.03 846 24.98 13 55.5 56 4.4 40
04:30 1017 30.03 846 24.98 12.9 55.2 54 3.8 38.9
04:35 1017 30.03 846 24.98 12.9 55.2 54 4 39.2
04:40 1017 30.03 846 24.98 12.7 54.8 54 3.7 38.7
04:45 1017 30.03 846 24.98 12.6 54.6 54 3.7 38.6
04:50 1017 30.03 846 24.98 12.4 54.3 55 3.6 38.4
04:55 1017 30.03 846 24.98 12.2 53.9 55 3.5 38.3
05:00 1017 30.03 846 24.98 11.9 53.5 56 3.5 38.3
05:05 1017 30.03 846 24.98 11.9 53.3 56 3.4 38
05:10 1017 30.03 846 24.98 12.2 53.9 54 3.2 37.8
05:15 1017 30.03 846 24.98 12.6 54.7 53 3.2 37.8
05:20 1017 30.03 846 24.98 12.7 54.9 53 3.5 38.4
05:25 1017 30.03 846 24.98 12.7 54.8 53 3.5 38.3
05:30 1017 30.03 846 24.98 12.7 54.8 53 3.5 38.2
05:35 1017 30.03 846 24.98 12.7 54.8 53 3.5 38.2
05:40 1017 30.03 846 24.98 12.8 55 52 3.4 38
05:45 1017 30.03 846 24.98 12.8 55 54 3.7 38.7
05:50 1017 30.03 846 24.98 12.3 54.1 55 3.5 38.3
05:55 1017 30.03 846 24.98 12.2 53.9 55 3.4 38.2
06:00 1017 30.03 846 24.98 12 53.6 57 3.8 38.8
06:05 1017 30.03 846 24.98 11.7 53 58 3.8 38.8
06:10 1017 30.03 846 24.98 11.5 52.8 59 3.9 39.1
06:15 1017 30.03 846 24.98 11.3 52.3 61 4 39.2
06:20 1017 30.03 846 24.98 10.7 51.2 64 4.1 39.4
06:25 1017 30.03 846 24.98 10.5 50.8 64 4 39.2
06:30 1017 30.03 846 24.98 10.5 50.9 64 3.9 39.1
06:35 1017 30.03 846 24.98 10.6 51.1 63 3.8 38.9
06:40 1017 30.03 846 24.98 11 51.8 62 3.9 39.1
06:45 1017 30.03 846 24.98 11.2 52.2 61 4 39.2
06:50 1017 30.03 847 25.01 11.5 52.7 59 3.9 39
06:55 1017 30.03 847 25.01 11.6 53 59 4 39.2
07:00 1017 30.03 847 25.01 11.8 53.2 58 3.9 39.1
07:05 1017 30.03 847 25.01 12 53.6 59 4.4 39.9
07:10 1017 30.03 847 25.01 12.3 54.1 58 4.4 39.9
07:15 1018 30.06 847 25.01 12.3 54.1 59 4.5 40.2
07:20 1018 30.06 847 25.01 12.5 54.6 58 4.6 40.3
07:25 1018 30.06 847 25.01 12.9 55.1 57 4.6 40.3
07:30 1018 30.06 847 25.01 13.1 55.6 57 4.9 40.8
07:35 1018 30.06 847 25.01 13.1 55.5 58 5.1 41.1
07:40 1018 30.06 847 25.01 13.5 56.3 55 4.8 40.6
07:45 1018 30.06 847 25.01 13.7 56.6 57 5.3 41.5
07:50 1018 30.06 847 25.01 14.2 57.6 54 5.1 41.1
07:55 1018 30.06 847 25.01 14.6 58.4 52 5.1 41.2
08:00 1018 30.06 847 25.01 14.9 58.8 51 5 40.9
08:05 1018 30.06 847 25.01 15.1 59.2 50 4.9 40.8
08:10 1018 30.06 847 25.01 15.4 59.7 49 4.9 40.8
08:15 1018 30.06 847 25.01 14.7 58.5 51 4.8 40.7
08:20 1018 30.06 847 25.01 14.8 58.7 52 5.1 41.1
08:25 1018 30.06 847 25.01 14.6 58.2 52 5 41.1
08:30 1018 30.06 847 25.01 14.8 58.6 52 5.2 41.4
08:35 1018 30.06 847 25.01 14.9 58.9 52 5.3 41.5
08:40 1018 30.06 847 25.01 14.7 58.4 53 5.2 41.3
08:45 1018 30.06 847 25.01 14.9 58.8 50 4.7 40.4
08:50 1018 30.06 847 25.01 14.9 58.8 52 5.1 41.2
08:55 1018 30.06 847 25.01 14.9 58.8 51 5 41
09:00 1017 30.03 847 25.01 15 58.9 52 5.4 41.7
09:05 1017 30.03 847 25.01 15.2 59.4 51 5.3 41.5
09:10 1017 30.03 847 25.01 15.4 59.7 51 5.3 41.6
09:15 1017 30.03 847 25.01 16.2 61.1 46 4.7 40.5
09:20 1017 30.03 847 25.01 16.6 61.9 47 5.5 41.9
09:25 1017 30.03 847 25.01 16.4 61.6 47 5.1 41.2
09:30 1017 30.03 846 24.98 16.8 62.2 46 5.1 41.1
09:35 1017 30.03 846 24.98 16.8 62.2 48 5.8 42.5
09:40 1017 30.03 846 24.98 16.1 61 48 5.3 41.5
09:45 1017 30.03 846 24.98 16.2 61.1 48 5.2 41.3
09:50 1017 30.03 846 24.98 16.2 61.2 48 5.2 41.4
09:55 1017 30.03 846 24.98 16.5 61.6 46 5 41.1
10:00 1017 30.03 846 24.98 16.6 61.9 46 5 41
10:05 1017 30.03 846 24.98 17 62.7 44 4.7 40.4
10:10 1017 30.03 846 24.98 16.9 62.5 46 5.3 41.6
10:15 1017 30.03 846 24.98 17.6 63.7 44 5.3 41.5
10:20 1016 30 846 24.98 18.5 65.2 39 4.3 39.8
10:25 1016 30 846 24.98 18.3 65 41 5 41
10:30 1016 30 845 24.95 19 66.1 38 4.5 40.2
10:35 1016 30 845 24.95 19.5 67.1 38 5.1 41.3
10:40 1016 30 845 24.95 19.7 67.5 38 5 41
10:45 1016 30 845 24.95 19.8 67.7 36 4.6 40.3
10:50 1016 30 845 24.95 19.6 67.3 39 5.4 41.8
10:55 1016 30 845 24.95 19.2 66.5 38 4.8 40.7
11:00 1016 30 845 24.95 19.9 67.8 35 3.9 39.1
11:05 1016 30 845 24.95 20.2 68.4 33 3.7 38.6
11:10 1016 30 845 24.95 20.7 69.2 33 4 39.2
11:15 1015 29.97 845 24.95 20.3 68.6 35 4.6 40.3
11:20 1015 29.97 845 24.95 20.2 68.3 36 4.7 40.4
11:25 1015 29.97 844 24.92 19.3 66.7 39 5 41
11:30 1015 29.97 844 24.92 19.2 66.6 39 4.9 40.9
11:35 1015 29.97 844 24.92 19.9 67.9 37 4.9 40.8
11:40 1015 29.97 844 24.92 20.7 69.2 34 4.4 39.9
11:45 1015 29.97 844 24.92 20.6 69.1 35 4.8 40.7
11:50 1015 29.97 844 24.92 19.8 67.7 37 5.1 41.1
11:55 1015 29.97 844 24.92 20 68 35 4.3 39.7
12:00 1015 29.97 844 24.92 20.5 68.9 35 4.8 40.6
12:05 1015 29.97 844 24.92 20.2 68.4 36 4.7 40.5
12:10 1015 29.97 844 24.92 20.7 69.3 34 4.4 40
12:15 1014 29.94 844 24.92 20.3 68.5 36 4.8 40.7
12:20 1014 29.94 844 24.92 20.5 69 33 3.9 39.1
12:25 1014 29.94 844 24.92 20.8 69.4 33 4.1 39.3
12:30 1014 29.94 843 24.89 21.4 70.6 33 4.6 40.4
12:35 1014 29.94 843 24.89 21.9 71.4 33 5.2 41.3
12:40 1014 29.94 843 24.89 21.6 70.9 34 5.5 41.8
12:45 1014 29.94 843 24.89 21.6 70.8 32 4.5 40.1
12:50 1014 29.94 843 24.89 22.1 71.7 33 5.4 41.7
12:55 1014 29.94 843 24.89 21 69.8 35 5 40.9
13:00 1014 29.94 843 24.89 21.9 71.4 32 4.7 40.4
13:05 1014 29.94 843 24.89 22.2 72 32 5.1 41.2
13:10 1014 29.94 843 24.89 22 71.6 33 5.3 41.6
13:15 1013 29.91 843 24.89 22.6 72.7 33 5.8 42.5
13:20 1013 29.91 843 24.89 22.5 72.5 32 5.2 41.3
13:25 1013 29.91 842 24.86 23.1 73.5 31 5.2 41.4
13:30 1013 29.91 842 24.86 23.7 74.7 30 5.2 41.4
13:35 1013 29.91 842 24.86 24.1 75.3 30 5.4 41.8
13:40 1013 29.91 842 24.86 23.7 74.6 30 5.2 41.4
13:45 1013 29.91 842 24.86 23.5 74.3 29 4.9 40.8
13:50 1013 29.91 842 24.86 22.4 72.3 31 4.8 40.7
13:55 1013 29.91 842 24.86 22.9 73.3 29 4.3 39.7
14:00 1013 29.91 842 24.86 23.6 74.5 29 4.8 40.6
14:05 1013 29.91 842 24.86 24.3 75.7 29 5.3 41.5
14:10 1012 29.88 842 24.86 24.4 75.9 27 4.4 39.9
14:15 1012 29.88 842 24.86 23.4 74.1 30 5.1 41.2
14:20 1012 29.88 842 24.86 23 73.5 29 4.5 40
14:25 1012 29.88 841 24.83 23.2 73.8 29 4.3 39.7
14:30 1012 29.88 841 24.83 23.5 74.3 28 4.2 39.5
14:35 1012 29.88 841 24.83 24.2 75.5 27 4.1 39.4
14:40 1012 29.88 841 24.83 24.4 75.9 27 4.3 39.7
14:45 1012 29.88 841 24.83 23.3 74 29 4.5 40.1
14:50 1012 29.88 841 24.83 24.6 76.2 28 5 41
14:55 1012 29.88 841 24.83 24.5 76 28 4.9 40.8
15:00 1012 29.88 841 24.83 23.1 73.7 28 3.8 38.8
15:05 1012 29.88 841 24.83 24.3 75.8 25 3.5 38.3
15:10 1011 29.85 841 24.83 24.2 75.6 25 3.1 37.6
15:15 1011 29.85 841 24.83 22.9 73.3 27 3.3 37.9
15:20 1011 29.85 840 24.81 22.9 73.1 28 3.3 38
15:25 1011 29.85 841 24.83 23.4 74.2 27 3.8 38.8
15:30 1011 29.85 841 24.83 23 73.5 29 4.2 39.5
15:35 1011 29.85 840 24.81 23.5 74.3 28 3.9 39.1
15:40 1011 29.85 840 24.81 24.3 75.8 27 4.5 40.1
15:45 1011 29.85 840 24.81 24.2 75.6 28 4.6 40.3
15:50 1011 29.85 840 24.81 24.5 76.1 27 4.5 40.1
15:55 1011 29.85 840 24.81 24.6 76.3 27 4.3 39.8
16:00 1011 29.85 840 24.81 24.7 76.4 26 4.1 39.3
16:05 1011 29.85 840 24.81 24.1 75.3 27 4 39.2
16:10 1011 29.85 840 24.81 24.2 75.5 27 4.1 39.3
16:15 1011 29.85 840 24.81 24.4 76 27 4.2 39.6
16:20 1011 29.85 840 24.81 25 77.1 25 3.9 39
16:25 1010 29.83 840 24.81 25.2 77.4 24 3.6 38.5
16:30 1010 29.83 840 24.81 24.9 76.7 25 3.6 38.4
16:35 1010 29.83 839 24.78 24.7 76.5 25 3.7 38.6
16:40 1010 29.83 839 24.78 25 77 25 3.9 39.1
16:45 1010 29.83 839 24.78 25.5 77.8 25 4.3 39.8
16:50 1010 29.83 839 24.78 24.3 75.7 28 4.8 40.6
16:55 1010 29.83 839 24.78 23.2 73.8 29 4.3 39.7
17:00 1010 29.83 839 24.78 23.6 74.5 28 4 39.2
17:05 1010 29.83 839 24.78 24.1 75.4 27 3.9 39
17:10 1010 29.83 839 24.78 23.4 74.1 29 4.4 39.9
17:15 1009 29.8 839 24.78 23.2 73.8 28 4.2 39.5
17:20 1009 29.8 839 24.78 24.1 75.4 25 3.3 38
17:25 1009 29.8 839 24.78 24.5 76.1 25 3.7 38.6
17:30 1009 29.8 838 24.75 24.5 76.2 25 3.4 38.2
17:35 1009 29.8 838 24.75 25.1 77.2 24 3.6 38.4
17:40 1009 29.8 838 24.75 25.3 77.6 25 4 39.3
17:45 1009 29.8 838 24.75 25.2 77.4 24 3.4 38.1
17:50 1009 29.8 838 24.75 25.9 78.6 23 3.5 38.4
17:55 1009 29.8 838 24.75 26.1 78.9 22 3.3 37.9
18:00 1009 29.8 838 24.75 25.2 77.4 23 3.1 37.7
18:05 1009 29.8 838 24.75 24.9 76.9 24 3.1 37.5
18:10 1009 29.8 838 24.75 24.6 76.2 24 2.9 37.2
18:15 1009 29.8 838 24.75 24.6 76.2 23 2.3 36.2
18:20 1008 29.77 838 24.75 24.8 76.7 23 2.3 36.1
18:25 1008 29.77 837 24.72 24.8 76.7 22 2.2 36
18:30 1008 29.77 837 24.72 24.8 76.6 21 1.4 34.5
18:35 1008 29.77 837 24.72 24.6 76.3 20 0.5 32.8
18:40 1008 29.77 837 24.72 24.9 76.9 21 1 33.9
18:45 1008 29.77 837 24.72 24.8 76.6 20 0.6 33.1
18:50 1008 29.77 837 24.72 24.6 76.3 22 1.6 34.9
18:55 1008 29.77 837 24.72 24.6 76.4 21 0.9 33.5
19:00 1008 29.77 837 24.72 24.7 76.4 20 0.6 33.1
19:05 1008 29.77 837 24.72 24.6 76.3 15 -3.3 26.1
19:10 1008 29.77 837 24.72 24.4 76 15 -3.5 25.6
19:15 1008 29.77 837 24.72 24.2 75.6 15 -3.6 25.5
19:20 1008 29.77 837 24.72 24.1 75.4 15 -3.6 25.6
19:25 1008 29.77 837 24.72 23.9 75.1 15 -3.7 25.3
19:30 1007 29.74 837 24.72 23.8 74.8 16 -3.6 25.5
19:35 1008 29.77 837 24.72 23.5 74.2 15 -4.2 24.4
19:40 1008 29.77 837 24.72 23.3 73.9 15 -4.6 23.8
19:45 1008 29.77 837 24.72 23.2 73.7 15 -4.4 24.1
19:50 1008 29.77 837 24.72 23.1 73.6 15 -4.6 23.8
19:55 1008 29.77 837 24.72 23 73.4 15 -4.7 23.5
20:00 1008 29.77 837 24.72 23 73.4 16 -4 24.9
20:05 1008 29.77 837 24.72 22.8 73 16 -4.1 24.6
20:10 1007 29.74 837 24.72 22.9 73.1 15 -4.7 23.6
20:15 1008 29.77 837 24.72 22.8 73.1 15 -4.6 23.7
20:20 1008 29.77 837 24.72 22.6 72.8 16 -4.5 23.8
20:25 1007 29.74 837 24.72 22.6 72.6 16 -4.3 24.3
20:30 1007 29.74 837 24.72 22.4 72.2 17 -3.4 25.8
20:35 1007 29.74 837 24.72 22.4 72.3 15 -5 23.1
20:40 1007 29.74 837 24.72 22.6 72.6 16 -4.5 23.9
20:45 1007 29.74 837 24.72 22.3 72.2 15 -5.3 22.4
20:50 1007 29.74 836 24.69 22.5 72.4 15 -5.7 21.8
20:55 1007 29.74 836 24.69 22.4 72.4 15 -5.3 22.5
21:00 1007 29.74 836 24.69 22.3 72.2 14 -6 21.2
21:05 1007 29.74 836 24.69 22.3 72.1 15 -5.4 22.3
21:10 1007 29.74 836 24.69 22 71.6 15 -5.5 22.1
21:15 1007 29.74 836 24.69 21.9 71.4 15 -5.5 22.1
21:20 1007 29.74 837 24.72 21.8 71.2 15 -5.6 21.9
21:25 1007 29.74 837 24.72 21.9 71.5 15 -6 21.2
21:30 1007 29.74 837 24.72 21.8 71.2 15 -5.5 22.1
21:35 1007 29.74 837 24.72 21.7 71 15 -5.6 21.9
21:40 1007 29.74 837 24.72 21.4 70.6 15 -6.2 20.9
21:45 1007 29.74 837 24.72 21.5 70.7 15 -5.9 21.4
21:50 1007 29.74 837 24.72 21.5 70.7 15 -5.7 21.7
21:55 1007 29.74 837 24.72 21.4 70.5 17 -4.4 24.1
22:00 1007 29.74 837 24.72 21.3 70.4 16 -5.4 22.3
22:05 1007 29.74 837 24.72 21.3 70.4 16 -5.3 22.5
22:10 1007 29.74 836 24.69 21.1 70 17 -4.8 23.4
22:15 1007 29.74 836 24.69 21 69.7 18 -4.2 24.5
22:20 1007 29.74 836 24.69 21 69.8 18 -4 24.9
22:25 1007 29.74 836 24.69 21.1 69.9 18 -4.2 24.4
22:30 1007 29.74 836 24.69 21.1 70 18 -3.7 25.3
22:35 1007 29.74 836 24.69 21 69.8 19 -3.6 25.6
22:40 1007 29.74 836 24.69 20.9 69.6 19 -3.5 25.8
22:45 1007 29.74 836 24.69 20.8 69.4 19 -3.6 25.4
22:50 1007 29.74 836 24.69 21.2 70.1 18 -4 24.8
22:55 1007 29.74 836 24.69 21.1 69.9 18 -3.7 25.4
23:00 1007 29.74 836 24.69 20.9 69.6 19 -3.5 25.6
23:05 1007 29.74 836 24.69 20.8 69.4 19 -3.8 25.2
23:10 1007 29.74 836 24.69 20.7 69.3 19 -3.4 26
23:15 1007 29.74 836 24.69 20.8 69.4 19 -3.2 26.3
23:20 1007 29.74 836 24.69 20.5 68.9 20 -2.9 26.7
23:25 1007 29.74 836 24.69 20.4 68.6 20 -3 26.7
23:30 1007 29.74 836 24.69 20.5 69 19 -3.5 25.8
23:35 1007 29.74 836 24.69 20.5 69 20 -3.2 26.3
23:40 1007 29.74 836 24.69 20.4 68.6 20 -2.9 26.8
23:45 1007 29.74 836 24.69 20.3 68.6 21 -2.6 27.3
23:50 1007 29.74 836 24.69 20 68.1 22 -2.4 27.8
23:55 1007 29.74 836 24.69 19.3 66.7 23 -2 28.4
24:00 1007 29.74 836 24.69 18.8 65.9 24 -1.8 28.7